Time,TemperatureF,DewpointF,PressureIn,WindDirection,WindDirectionDegrees,WindSpeedMPH,WindSpeedGustMPH,Humidity,HourlyPrecipIn,Conditions,Clouds,dailyrainin,SolarRadiationWatts/m^2,SoftwareType,DateUTC
2013-02-08 00:00:00,35.6,32.1,29.85,ESE,118,0.0,0.0,87,0.00,,,0.01,0,Wunderground v.1.15,2013-02-08 05:00:00,
2013-02-08 00:01:00,35.7,32.2,29.85,ESE,119,0.0,0.0,87,0.00,,,0.01,0,Wunderground v.1.15,2013-02-08 05:01:00,
2013-02-08 00:02:00,35.7,31.9,29.85,ESE,119,0.0,0.0,86,0.00,,,0.01,0,Wunderground v.1.15,2013-02-08 05:02:00,
2013-02-08 00:04:00,35.8,32.0,29.85,ESE,119,0.0,0.0,86,0.00,,,0.01,0,Wunderground v.1.15,2013-02-08 05:04:00,
2013-02-08 00:09:00,35.7,31.9,29.85,ESE,119,0.0,0.0,86,0.00,,,0.01,0,Wunderground v.1.15,2013-02-08 05:09:00,
2013-02-08 00:14:00,36.0,32.2,29.85,SE,126,0.0,0.0,86,0.00,,,0.01,0,Wunderground v.1.15,2013-02-08 05:14:00,
2013-02-08 00:19:00,36.7,32.9,29.85,ESE,119,0.0,0.0,86,0.00,,,0.01,0,Wunderground v.1.15,2013-02-08 05:19:00,
2013-02-08 00:24:00,37.6,33.8,29.85,SE,128,0.0,0.0,86,0.00,,,0.01,0,Wunderground v.1.15,2013-02-08 05:24:00,
2013-02-08 00:30:00,38.3,34.2,29.84,ESE,118,0.0,0.0,85,0.00,,,0.01,0,Wunderground v.1.15,2013-02-08 05:30:00,
2013-02-08 00:35:00,38.6,34.2,29.84,ESE,116,0.0,0.0,84,0.00,,,0.01,0,Wunderground v.1.15,2013-02-08 05:35:00,
2013-02-08 00:41:00,38.9,34.5,29.84,ESE,109,0.0,0.0,84,0.00,,,0.01,0,Wunderground v.1.15,2013-02-08 05:41:00,
2013-02-08 00:46:00,39.3,34.6,29.84,ESE,111,0.0,0.0,83,0.00,,,0.01,0,Wunderground v.1.15,2013-02-08 05:46:00,
2013-02-08 00:51:00,39.3,34.6,29.84,SE,129,0.0,0.0,83,0.00,,,0.01,0,Wunderground v.1.15,2013-02-08 05:51:00,
2013-02-08 00:56:00,39.1,34.1,29.83,East,95,0.0,0.0,82,0.00,,,0.01,0,Wunderground v.1.15,2013-02-08 05:56:00,
2013-02-08 01:01:00,39.4,34.7,29.83,ESE,119,0.0,0.0,83,0.00,,,0.01,0,Wunderground v.1.15,2013-02-08 06:01:00,
2013-02-08 01:06:00,39.5,34.5,29.83,SE,146,0.0,0.0,82,0.00,,,0.01,0,Wunderground v.1.15,2013-02-08 06:06:00,
2013-02-08 01:11:00,39.4,34.7,29.83,SE,141,0.0,0.0,83,0.00,,,0.01,0,Wunderground v.1.15,2013-02-08 06:11:00,
2013-02-08 01:16:00,40.0,35.3,29.83,ESE,120,0.0,0.0,83,0.00,,,0.01,0,Wunderground v.1.15,2013-02-08 06:16:00,
2013-02-08 01:21:00,40.2,35.1,29.83,ESE,113,0.0,0.0,82,0.00,,,0.01,0,Wunderground v.1.15,2013-02-08 06:21:00,
2013-02-08 01:27:00,40.5,35.4,29.82,ESE,120,0.0,0.0,82,0.00,,,0.01,0,Wunderground v.1.15,2013-02-08 06:27:00,
2013-02-08 01:32:00,40.7,35.3,29.82,SE,143,0.0,0.0,81,0.00,,,0.01,0,Wunderground v.1.15,2013-02-08 06:32:00,
2013-02-08 01:37:00,41.0,35.6,29.82,ESE,111,0.0,0.0,81,0.00,,,0.01,0,Wunderground v.1.15,2013-02-08 06:37:00,
2013-02-08 01:42:00,41.3,35.9,29.82,SE,126,0.0,0.0,81,0.00,,,0.01,0,Wunderground v.1.15,2013-02-08 06:42:00,
2013-02-08 01:47:00,41.6,35.9,29.82,ESE,123,0.0,0.0,80,0.00,,,0.01,0,Wunderground v.1.15,2013-02-08 06:47:00,
2013-02-08 01:53:00,41.8,36.1,29.81,ESE,113,0.0,0.0,80,0.00,,,0.01,0,Wunderground v.1.15,2013-02-08 06:53:00,
2013-02-08 01:59:00,42.0,36.0,29.81,ESE,116,0.0,0.0,79,0.00,,,0.01,0,Wunderground v.1.15,2013-02-08 06:59:00,
2013-02-08 02:04:00,42.1,36.1,29.81,ESE,119,0.0,0.0,79,0.00,,,0.01,0,Wunderground v.1.15,2013-02-08 07:04:00,
2013-02-08 02:09:00,42.3,36.3,29.81,SE,125,0.0,0.0,79,0.00,,,0.01,0,Wunderground v.1.15,2013-02-08 07:09:00,
2013-02-08 02:14:00,42.4,37.6,29.81,ESE,116,0.0,0.0,83,0.00,,,0.01,0,Wunderground v.1.15,2013-02-08 07:14:00,
2013-02-08 02:19:00,42.5,36.1,29.81,SE,130,0.0,0.0,78,0.00,,,0.01,0,Wunderground v.1.15,2013-02-08 07:19:00,
2013-02-08 02:24:00,42.5,36.1,29.81,ESE,119,0.0,0.0,78,0.00,,,0.01,0,Wunderground v.1.15,2013-02-08 07:24:00,
2013-02-08 02:29:00,42.7,36.3,29.81,SSE,158,0.0,0.0,78,0.00,,,0.01,0,Wunderground v.1.15,2013-02-08 07:29:00,
2013-02-08 02:34:00,42.7,36.3,29.81,SE,129,0.0,0.0,78,0.00,,,0.01,0,Wunderground v.1.15,2013-02-08 07:34:00,
2013-02-08 02:39:00,42.8,36.4,29.81,ESE,120,0.0,0.0,78,0.00,,,0.01,0,Wunderground v.1.15,2013-02-08 07:39:00,
2013-02-08 02:44:00,42.8,36.1,29.81,SE,126,0.0,0.0,77,0.00,,,0.01,0,Wunderground v.1.15,2013-02-08 07:44:00,
2013-02-08 02:49:00,42.7,36.0,29.81,SE,138,0.0,0.0,77,0.00,,,0.01,0,Wunderground v.1.15,2013-02-08 07:49:00,
2013-02-08 02:54:00,42.6,35.9,29.81,SSE,148,0.0,0.0,77,0.00,,,0.01,0,Wunderground v.1.15,2013-02-08 07:54:00,
2013-02-08 02:59:00,42.6,36.2,29.81,SE,127,0.0,0.0,78,0.00,,,0.01,0,Wunderground v.1.15,2013-02-08 07:59:00,
2013-02-08 03:04:00,42.5,36.1,29.81,ESE,122,0.0,0.0,78,0.00,,,0.01,0,Wunderground v.1.15,2013-02-08 08:04:00,
2013-02-08 03:09:00,42.5,36.1,29.81,ESE,123,0.0,0.0,78,0.00,,,0.01,0,Wunderground v.1.15,2013-02-08 08:09:00,
2013-02-08 03:14:00,42.4,36.0,29.81,SE,143,0.0,0.0,78,0.00,,,0.01,0,Wunderground v.1.15,2013-02-08 08:14:00,
2013-02-08 03:19:00,42.3,35.9,29.80,ESE,114,0.0,0.0,78,0.00,,,0.01,0,Wunderground v.1.15,2013-02-08 08:19:00,
2013-02-08 03:24:00,42.4,36.0,29.80,SE,128,0.0,0.0,78,0.00,,,0.01,0,Wunderground v.1.15,2013-02-08 08:24:00,
2013-02-08 03:29:00,42.5,36.4,29.80,SE,125,0.0,0.0,79,0.00,,,0.01,0,Wunderground v.1.15,2013-02-08 08:29:00,
2013-02-08 03:34:00,42.5,36.1,29.79,ESE,117,0.0,0.0,78,0.00,,,0.01,0,Wunderground v.1.15,2013-02-08 08:34:00,
2013-02-08 03:39:00,42.6,36.5,29.79,SE,144,0.0,0.0,79,0.00,,,0.01,0,Wunderground v.1.15,2013-02-08 08:39:00,
2013-02-08 03:44:00,42.7,36.6,29.79,ESE,123,0.0,0.0,79,0.00,,,0.01,0,Wunderground v.1.15,2013-02-08 08:44:00,
2013-02-08 03:49:00,42.8,36.7,29.79,SE,132,0.0,0.0,79,0.00,,,0.01,0,Wunderground v.1.15,2013-02-08 08:49:00,
2013-02-08 03:54:00,42.7,36.6,29.79,SE,126,0.0,0.0,79,0.00,,,0.01,0,Wunderground v.1.15,2013-02-08 08:54:00,
2013-02-08 03:59:00,42.6,36.9,29.79,SE,142,0.0,0.0,80,0.00,,,0.01,0,Wunderground v.1.15,2013-02-08 08:59:00,
2013-02-08 04:04:00,42.6,36.9,29.79,SSE,149,0.0,0.0,80,0.00,,,0.01,0,Wunderground v.1.15,2013-02-08 09:04:00,
2013-02-08 04:09:00,42.4,37.0,29.79,SE,134,0.0,0.0,81,0.00,,,0.01,0,Wunderground v.1.15,2013-02-08 09:09:00,
2013-02-08 04:14:00,42.2,37.1,29.79,ESE,120,0.0,0.0,82,0.00,,,0.02,0,Wunderground v.1.15,2013-02-08 09:14:00,
2013-02-08 04:19:00,41.8,37.0,29.79,SE,144,0.0,0.0,83,0.00,,,0.02,0,Wunderground v.1.15,2013-02-08 09:19:00,
2013-02-08 04:24:00,41.5,37.3,29.79,SSE,159,0.0,0.0,85,0.00,,,0.02,0,Wunderground v.1.15,2013-02-08 09:24:00,
2013-02-08 04:29:00,41.2,37.3,29.79,SSE,156,0.0,0.0,86,0.00,,,0.02,0,Wunderground v.1.15,2013-02-08 09:29:00,
2013-02-08 04:34:00,41.0,37.1,29.79,SSE,153,0.0,0.0,86,0.04,,,0.03,0,Wunderground v.1.15,2013-02-08 09:34:00,
2013-02-08 04:39:00,40.8,37.2,29.79,SE,138,0.0,0.0,87,0.04,,,0.03,0,Wunderground v.1.15,2013-02-08 09:39:00,
2013-02-08 04:44:00,40.6,37.3,29.80,SSE,153,0.0,0.0,88,0.04,,,0.03,0,Wunderground v.1.15,2013-02-08 09:44:00,
2013-02-08 04:49:00,40.5,37.2,29.80,SE,142,0.0,0.0,88,0.00,,,0.03,0,Wunderground v.1.15,2013-02-08 09:49:00,
2013-02-08 04:54:00,40.4,37.4,29.80,SSE,156,0.0,0.0,89,0.00,,,0.03,0,Wunderground v.1.15,2013-02-08 09:54:00,
2013-02-08 04:59:00,40.4,37.4,29.80,SSE,162,0.0,0.0,89,0.00,,,0.04,0,Wunderground v.1.15,2013-02-08 09:59:00,
2013-02-08 05:04:00,40.3,37.6,29.80,South,182,0.0,0.0,90,0.08,,,0.05,0,Wunderground v.1.15,2013-02-08 10:04:00,
2013-02-08 05:09:00,40.3,37.6,29.80,South,176,0.0,0.0,90,0.15,,,0.06,0,Wunderground v.1.15,2013-02-08 10:09:00,
2013-02-08 05:14:00,40.3,37.9,29.80,South,182,0.0,0.0,91,0.16,,,0.08,0,Wunderground v.1.15,2013-02-08 10:14:00,
2013-02-08 05:19:00,40.4,38.0,29.81,SW,220,0.0,0.0,91,0.13,,,0.09,0,Wunderground v.1.15,2013-02-08 10:19:00,
2013-02-08 05:24:00,40.4,38.0,29.81,SW,233,0.0,0.0,91,0.11,,,0.10,0,Wunderground v.1.15,2013-02-08 10:24:00,
2013-02-08 05:29:00,40.5,38.1,29.81,WSW,239,0.0,0.0,91,0.10,,,0.10,0,Wunderground v.1.15,2013-02-08 10:29:00,
2013-02-08 05:34:00,40.7,38.6,29.82,WSW,238,0.0,0.0,92,0.08,,,0.11,0,Wunderground v.1.15,2013-02-08 10:34:00,
2013-02-08 05:39:00,40.8,38.7,29.82,West,261,0.0,0.0,92,0.07,,,0.11,0,Wunderground v.1.15,2013-02-08 10:39:00,
2013-02-08 05:44:00,40.8,38.7,29.82,SW,234,0.0,0.0,92,0.07,,,0.12,0,Wunderground v.1.15,2013-02-08 10:44:00,
2013-02-08 05:49:00,40.5,38.4,29.82,WSW,246,0.0,0.0,92,0.09,,,0.13,0,Wunderground v.1.15,2013-02-08 10:49:00,
2013-02-08 05:54:00,40.4,38.5,29.82,SW,225,0.0,0.0,93,0.08,,,0.13,0,Wunderground v.1.15,2013-02-08 10:54:00,
2013-02-08 05:59:00,40.1,38.2,29.82,WSW,247,0.0,0.0,93,0.05,,,0.13,0,Wunderground v.1.15,2013-02-08 10:59:00,
2013-02-08 06:04:00,39.9,38.0,29.82,SW,229,0.0,0.0,93,0.05,,,0.14,0,Wunderground v.1.15,2013-02-08 11:04:00,
2013-02-08 06:09:00,39.6,37.7,29.83,WSW,244,0.0,0.0,93,0.05,,,0.14,0,Wunderground v.1.15,2013-02-08 11:09:00,
2013-02-08 06:14:00,39.4,37.5,29.83,SSW,208,0.0,0.0,93,0.05,,,0.15,0,Wunderground v.1.15,2013-02-08 11:14:00,
2013-02-08 06:19:00,39.1,37.2,29.83,West,279,0.0,0.0,93,0.05,,,0.15,0,Wunderground v.1.15,2013-02-08 11:19:00,
2013-02-08 06:24:00,38.9,37.0,29.83,WNW,286,0.0,0.0,93,0.05,,,0.15,0,Wunderground v.1.15,2013-02-08 11:24:00,
2013-02-08 06:29:00,38.8,36.9,29.83,SW,224,0.0,0.0,93,0.04,,,0.15,0,Wunderground v.1.15,2013-02-08 11:29:00,
2013-02-08 06:34:00,38.6,36.8,29.84,SW,216,0.0,0.0,93,0.00,,,0.15,0,Wunderground v.1.15,2013-02-08 11:34:00,
2013-02-08 06:39:00,38.5,36.7,29.84,SW,232,0.0,0.0,93,0.00,,,0.15,0,Wunderground v.1.15,2013-02-08 11:39:00,
2013-02-08 06:44:00,38.3,36.5,29.84,WSW,248,0.0,0.0,93,0.00,,,0.15,0,Wunderground v.1.15,2013-02-08 11:44:00,
2013-02-08 06:49:00,38.0,36.2,29.85,WSW,251,0.0,0.0,93,0.00,,,0.15,0,Wunderground v.1.15,2013-02-08 11:49:00,
2013-02-08 06:54:00,37.8,36.0,29.85,WNW,282,0.0,0.0,93,0.00,,,0.15,0,Wunderground v.1.15,2013-02-08 11:54:00,
2013-02-08 06:59:00,37.6,35.8,29.85,West,262,0.0,0.0,93,0.00,,,0.15,0,Wunderground v.1.15,2013-02-08 11:59:00,
2013-02-08 07:04:00,37.5,35.7,29.85,WSW,247,0.0,0.0,93,0.00,,,0.15,0,Wunderground v.1.15,2013-02-08 12:04:00,
2013-02-08 07:09:00,37.4,35.6,29.86,WSW,255,0.0,0.0,93,0.00,,,0.15,0,Wunderground v.1.15,2013-02-08 12:09:00,
2013-02-08 07:14:00,37.1,35.3,29.86,WSW,254,0.0,0.0,93,0.00,,,0.15,0,Wunderground v.1.15,2013-02-08 12:14:00,
2013-02-08 07:19:00,36.9,35.1,29.87,WSW,241,0.0,0.0,93,0.00,,,0.15,0,Wunderground v.1.15,2013-02-08 12:19:00,
2013-02-08 07:24:00,36.5,34.7,29.87,SW,231,0.0,0.0,93,0.00,,,0.15,0,Wunderground v.1.15,2013-02-08 12:24:00,
2013-02-08 07:29:00,36.3,34.5,29.88,West,269,0.0,0.0,93,0.00,,,0.15,0,Wunderground v.1.15,2013-02-08 12:29:00,
2013-02-08 07:34:00,36.2,34.4,29.88,SW,217,0.0,0.0,93,0.00,,,0.15,0,Wunderground v.1.15,2013-02-08 12:34:00,
2013-02-08 07:39:00,36.1,34.3,29.89,SW,233,0.0,0.0,93,0.00,,,0.15,0,Wunderground v.1.15,2013-02-08 12:39:00,
2013-02-08 07:44:00,35.9,34.1,29.89,West,263,0.0,0.0,93,0.00,,,0.15,0,Wunderground v.1.15,2013-02-08 12:44:00,
2013-02-08 07:49:00,35.8,34.0,29.89,SW,231,0.0,0.0,93,0.00,,,0.15,0,Wunderground v.1.15,2013-02-08 12:49:00,
2013-02-08 07:54:00,35.6,33.8,29.89,SW,228,0.0,0.0,93,0.00,,,0.15,0,Wunderground v.1.15,2013-02-08 12:54:00,
2013-02-08 07:59:00,35.4,33.6,29.89,WNW,285,0.0,0.0,93,0.00,,,0.15,5,Wunderground v.1.15,2013-02-08 12:59:00,
2013-02-08 08:04:00,35.3,33.5,29.90,West,267,0.0,0.0,93,0.00,,,0.15,7,Wunderground v.1.15,2013-02-08 13:04:00,
2013-02-08 08:09:00,35.2,33.4,29.90,SW,223,0.0,0.0,93,0.00,,,0.15,5,Wunderground v.1.15,2013-02-08 13:09:00,
2013-02-08 08:14:00,35.2,33.4,29.90,West,265,0.0,0.0,93,0.00,,,0.00,0,Wunderground v.1.15,2013-02-08 13:14:00,
2013-02-08 08:19:00,35.2,33.4,29.90,SW,224,0.0,0.0,93,0.00,,,0.00,9,Wunderground v.1.15,2013-02-08 13:19:00,
2013-02-08 08:24:00,35.2,33.4,29.90,West,273,0.0,0.0,93,0.00,,,0.00,7,Wunderground v.1.15,2013-02-08 13:24:00,
2013-02-08 08:29:00,35.2,33.4,29.91,WSW,243,0.0,0.0,93,0.00,,,0.00,14,Wunderground v.1.15,2013-02-08 13:29:00,
2013-02-08 08:34:00,35.2,33.4,29.91,WSW,240,0.0,0.0,93,0.00,,,0.00,16,Wunderground v.1.15,2013-02-08 13:34:00,
2013-02-08 08:39:00,35.3,33.5,29.92,WSW,256,0.0,0.0,93,0.00,,,0.00,14,Wunderground v.1.15,2013-02-08 13:39:00,
2013-02-08 08:44:00,35.3,33.5,29.92,SW,217,0.0,0.0,93,0.00,,,0.00,16,Wunderground v.1.15,2013-02-08 13:44:00,
2013-02-08 08:49:00,35.3,33.5,29.92,WSW,252,0.0,0.0,93,0.00,,,0.00,12,Wunderground v.1.15,2013-02-08 13:49:00,
2013-02-08 08:54:00,35.3,33.5,29.92,SW,219,0.0,0.0,93,0.00,,,0.00,12,Wunderground v.1.15,2013-02-08 13:54:00,
2013-02-08 08:59:00,35.3,33.5,29.92,WSW,257,0.0,0.0,93,0.00,,,0.00,16,Wunderground v.1.15,2013-02-08 13:59:00,
2013-02-08 09:04:00,35.3,33.5,29.93,WSW,251,0.0,0.0,93,0.00,,,0.00,18,Wunderground v.1.15,2013-02-08 14:04:00,
2013-02-08 09:09:00,35.3,33.5,29.93,WSW,242,0.0,0.0,93,0.00,,,0.00,23,Wunderground v.1.15,2013-02-08 14:09:00,
2013-02-08 09:14:00,35.4,33.6,29.93,WSW,238,0.0,0.0,93,0.00,,,0.00,32,Wunderground v.1.15,2013-02-08 14:14:00,
2013-02-08 09:19:00,35.4,33.6,29.93,WSW,242,0.0,0.0,93,0.00,,,0.00,26,Wunderground v.1.15,2013-02-08 14:19:00,
2013-02-08 09:24:00,35.4,33.6,29.93,West,261,0.0,0.0,93,0.00,,,0.00,30,Wunderground v.1.15,2013-02-08 14:24:00,
2013-02-08 09:29:00,35.4,33.6,29.93,WSW,250,0.0,0.0,93,0.00,,,0.00,40,Wunderground v.1.15,2013-02-08 14:29:00,
2013-02-08 09:34:00,35.5,33.7,29.94,SW,215,0.0,0.0,93,0.00,,,0.00,25,Wunderground v.1.15,2013-02-08 14:34:00,
2013-02-08 09:39:00,35.5,33.7,29.94,WSW,244,0.0,0.0,93,0.00,,,0.00,21,Wunderground v.1.15,2013-02-08 14:39:00,
2013-02-08 09:44:00,35.4,33.3,29.94,West,269,0.0,0.0,92,0.00,,,0.00,23,Wunderground v.1.15,2013-02-08 14:44:00,
2013-02-08 09:49:00,35.4,33.3,29.95,SW,214,0.0,0.0,92,0.00,,,0.00,25,Wunderground v.1.15,2013-02-08 14:49:00,
2013-02-08 09:54:00,35.3,33.2,29.95,West,260,0.0,0.0,92,0.00,,,0.00,21,Wunderground v.1.15,2013-02-08 14:54:00,
2013-02-08 09:59:00,35.3,33.2,29.95,WSW,238,0.0,0.0,92,0.00,,,0.00,18,Wunderground v.1.15,2013-02-08 14:59:00,
2013-02-08 10:04:00,35.2,33.1,29.95,WSW,257,0.0,0.0,92,0.00,,,0.00,25,Wunderground v.1.15,2013-02-08 15:04:00,
2013-02-08 10:09:00,35.1,33.0,29.96,WSW,240,0.0,0.0,92,0.00,,,0.00,30,Wunderground v.1.15,2013-02-08 15:09:00,
2013-02-08 10:14:00,35.0,32.9,29.96,WNW,284,0.0,0.0,92,0.00,,,0.00,30,Wunderground v.1.15,2013-02-08 15:14:00,
2013-02-08 10:19:00,34.9,32.5,29.96,West,274,0.0,0.0,91,0.00,,,0.00,32,Wunderground v.1.15,2013-02-08 15:19:00,
2013-02-08 10:24:00,34.7,32.3,29.97,WSW,246,0.0,0.0,91,0.00,,,0.00,35,Wunderground v.1.15,2013-02-08 15:24:00,
2013-02-08 10:29:00,34.6,32.2,29.97,West,279,0.0,0.0,91,0.00,,,0.00,35,Wunderground v.1.15,2013-02-08 15:29:00,
2013-02-08 10:35:00,34.6,32.2,29.98,SW,231,0.0,0.0,91,0.00,,,0.00,47,Wunderground v.1.15,2013-02-08 15:35:00,
2013-02-08 10:40:00,34.6,32.0,29.98,West,275,0.0,0.0,90,0.00,,,0.00,42,Wunderground v.1.15,2013-02-08 15:40:00,
2013-02-08 10:45:00,34.5,31.9,29.99,WSW,252,0.0,0.0,90,0.00,,,0.00,107,Wunderground v.1.15,2013-02-08 15:45:00,
2013-02-08 10:50:00,34.5,31.6,29.99,WSW,257,0.0,0.0,89,0.00,,,0.00,86,Wunderground v.1.15,2013-02-08 15:50:00,
2013-02-08 10:55:00,34.4,31.2,29.99,West,265,0.0,0.0,88,0.00,,,0.00,86,Wunderground v.1.15,2013-02-08 15:55:00,
2013-02-08 11:00:00,34.3,30.8,30.00,WSW,244,0.0,0.0,87,0.00,,,0.00,77,Wunderground v.1.15,2013-02-08 16:00:00,
2013-02-08 11:05:00,34.2,30.7,30.00,WSW,246,0.0,0.0,87,0.00,,,0.00,98,Wunderground v.1.15,2013-02-08 16:05:00,
2013-02-08 11:10:00,34.3,30.5,30.00,WSW,253,0.0,0.0,86,0.00,,,0.00,104,Wunderground v.1.15,2013-02-08 16:10:00,
2013-02-08 11:15:00,34.4,30.6,30.01,WSW,247,0.0,0.0,86,0.00,,,0.00,107,Wunderground v.1.15,2013-02-08 16:15:00,
2013-02-08 11:20:00,34.3,30.5,30.01,WSW,245,0.0,0.0,86,0.00,,,0.00,93,Wunderground v.1.15,2013-02-08 16:20:00,
2013-02-08 11:25:00,34.1,30.4,30.01,SW,234,0.0,0.0,86,0.00,,,0.00,127,Wunderground v.1.15,2013-02-08 16:25:00,
2013-02-08 11:30:00,34.3,30.3,30.02,West,269,0.0,0.0,85,0.00,,,0.00,186,Wunderground v.1.15,2013-02-08 16:30:00,
2013-02-08 11:35:00,34.4,30.1,30.02,WSW,250,0.0,0.0,84,0.00,,,0.00,137,Wunderground v.1.15,2013-02-08 16:35:00,
2013-02-08 11:40:00,34.4,30.1,30.02,WSW,256,0.0,0.0,84,0.00,,,0.00,156,Wunderground v.1.15,2013-02-08 16:40:00,
2013-02-08 11:45:00,34.4,29.8,30.03,WSW,244,0.0,0.0,83,0.00,,,0.00,125,Wunderground v.1.15,2013-02-08 16:45:00,
2013-02-08 11:50:00,34.4,29.8,30.03,WSW,238,0.0,0.0,83,0.00,,,0.00,146,Wunderground v.1.15,2013-02-08 16:50:00,
2013-02-08 11:55:00,34.3,29.4,30.03,WNW,286,0.0,0.0,82,0.00,,,0.00,123,Wunderground v.1.15,2013-02-08 16:55:00,
2013-02-08 12:00:00,34.3,29.4,30.03,WNW,291,0.0,0.0,82,0.00,,,0.00,105,Wunderground v.1.15,2013-02-08 17:00:00,
2013-02-08 12:05:00,34.2,29.3,30.04,WSW,251,0.0,0.0,82,0.00,,,0.00,79,Wunderground v.1.15,2013-02-08 17:05:00,
2013-02-08 12:10:00,34.1,29.2,30.04,West,269,0.0,0.0,82,0.00,,,0.00,67,Wunderground v.1.15,2013-02-08 17:10:00,
2013-02-08 12:15:00,34.0,29.4,30.04,WSW,257,0.0,0.0,83,0.00,,,0.00,76,Wunderground v.1.15,2013-02-08 17:15:00,
2013-02-08 12:20:00,33.8,29.2,30.04,WSW,255,0.0,0.0,83,0.00,,,0.00,95,Wunderground v.1.15,2013-02-08 17:20:00,
2013-02-08 12:25:00,33.7,28.8,30.05,WSW,252,0.0,0.0,82,0.00,,,0.00,111,Wunderground v.1.15,2013-02-08 17:25:00,
2013-02-08 12:30:00,33.7,28.8,30.05,WSW,254,0.0,0.0,82,0.00,,,0.00,105,Wunderground v.1.15,2013-02-08 17:30:00,
2013-02-08 12:35:00,33.5,28.6,30.05,WSW,239,0.0,0.0,82,0.00,,,0.00,123,Wunderground v.1.15,2013-02-08 17:35:00,
2013-02-08 12:40:00,33.6,28.7,30.05,West,259,0.0,0.0,82,0.00,,,0.00,109,Wunderground v.1.15,2013-02-08 17:40:00,
2013-02-08 12:45:00,33.6,28.7,30.05,WNW,291,0.0,0.0,82,0.00,,,0.00,95,Wunderground v.1.15,2013-02-08 17:45:00,
2013-02-08 12:50:00,33.6,28.7,30.05,SW,230,0.0,0.0,82,0.00,,,0.00,95,Wunderground v.1.15,2013-02-08 17:50:00,
2013-02-08 12:55:00,33.5,28.6,30.06,WNW,294,0.0,0.0,82,0.00,,,0.00,69,Wunderground v.1.15,2013-02-08 17:55:00,
2013-02-08 13:00:00,33.4,28.5,30.06,West,279,0.0,0.0,82,0.00,,,0.00,77,Wunderground v.1.15,2013-02-08 18:00:00,
2013-02-08 13:05:00,33.2,28.3,30.06,West,271,0.0,0.0,82,0.00,,,0.00,84,Wunderground v.1.15,2013-02-08 18:05:00,
2013-02-08 13:10:00,33.2,28.3,30.07,WNW,300,0.0,0.0,82,0.00,,,0.00,83,Wunderground v.1.15,2013-02-08 18:10:00,
2013-02-08 13:15:00,33.2,28.3,30.06,West,269,0.0,0.0,82,0.00,,,0.00,84,Wunderground v.1.15,2013-02-08 18:15:00,
2013-02-08 13:20:00,33.2,28.3,30.07,WNW,283,0.0,0.0,82,0.00,,,0.00,86,Wunderground v.1.15,2013-02-08 18:20:00,
2013-02-08 13:25:00,33.2,28.3,30.07,WNW,285,0.0,0.0,82,0.00,,,0.00,84,Wunderground v.1.15,2013-02-08 18:25:00,
2013-02-08 13:30:00,33.3,28.4,30.07,WSW,257,0.0,0.0,82,0.00,,,0.00,86,Wunderground v.1.15,2013-02-08 18:30:00,
2013-02-08 13:35:00,33.3,28.4,30.07,West,276,0.0,0.0,82,0.00,,,0.00,83,Wunderground v.1.15,2013-02-08 18:35:00,
2013-02-08 13:41:00,33.3,28.4,30.07,WNW,288,0.0,0.0,82,0.00,,,0.00,100,Wunderground v.1.15,2013-02-08 18:41:00,
2013-02-08 13:46:00,33.3,28.4,30.07,WSW,250,0.0,0.0,82,0.00,,,0.00,76,Wunderground v.1.15,2013-02-08 18:46:00,
2013-02-08 13:51:00,33.3,28.4,30.07,WNW,290,0.0,0.0,82,0.00,,,0.00,67,Wunderground v.1.15,2013-02-08 18:51:00,
2013-02-08 13:56:00,33.3,28.7,30.07,West,269,0.0,0.0,83,0.00,,,0.00,77,Wunderground v.1.15,2013-02-08 18:56:00,
2013-02-08 14:01:00,33.2,28.3,30.08,West,261,0.0,0.0,82,0.00,,,0.00,81,Wunderground v.1.15,2013-02-08 19:01:00,
2013-02-08 14:06:00,33.3,28.7,30.08,WSW,257,0.0,0.0,83,0.00,,,0.00,128,Wunderground v.1.15,2013-02-08 19:06:00,
2013-02-08 14:11:00,33.4,28.8,30.08,WSW,243,0.0,0.0,83,0.00,,,0.00,70,Wunderground v.1.15,2013-02-08 19:11:00,
2013-02-08 14:16:00,33.4,28.5,30.08,WSW,240,0.0,0.0,82,0.00,,,0.00,69,Wunderground v.1.15,2013-02-08 19:16:00,
2013-02-08 14:21:00,33.3,28.4,30.08,West,271,0.0,0.0,82,0.00,,,0.00,63,Wunderground v.1.15,2013-02-08 19:21:00,
2013-02-08 14:26:00,33.2,28.3,30.08,West,259,0.0,0.0,82,0.00,,,0.00,65,Wunderground v.1.15,2013-02-08 19:26:00,
2013-02-08 14:31:00,33.3,28.7,30.09,SW,236,0.0,0.0,83,0.00,,,0.00,69,Wunderground v.1.15,2013-02-08 19:31:00,
2013-02-08 14:36:00,33.2,28.3,30.08,WSW,254,0.0,0.0,82,0.00,,,0.00,69,Wunderground v.1.15,2013-02-08 19:36:00,
2013-02-08 14:41:00,33.1,28.2,30.08,West,275,0.0,0.0,82,0.00,,,0.00,100,Wunderground v.1.15,2013-02-08 19:41:00,
2013-02-08 14:46:00,33.1,28.2,30.08,WSW,251,0.0,0.0,82,0.00,,,0.00,120,Wunderground v.1.15,2013-02-08 19:46:00,
2013-02-08 14:51:00,33.0,28.1,30.09,NW,304,0.0,0.0,82,0.00,,,0.00,88,Wunderground v.1.15,2013-02-08 19:51:00,
2013-02-08 14:56:00,33.0,28.1,30.09,WSW,258,0.0,0.0,82,0.00,,,0.00,105,Wunderground v.1.15,2013-02-08 19:56:00,
2013-02-08 15:01:00,32.9,27.7,30.10,West,267,0.0,0.0,81,0.00,,,0.00,69,Wunderground v.1.15,2013-02-08 20:01:00,
2013-02-08 15:06:00,32.8,27.6,30.10,West,279,0.0,0.0,81,0.00,,,0.00,98,Wunderground v.1.15,2013-02-08 20:06:00,
2013-02-08 15:11:00,32.9,27.7,30.10,WSW,252,0.0,0.0,81,0.00,,,0.00,123,Wunderground v.1.15,2013-02-08 20:11:00,
2013-02-08 15:16:00,32.9,27.7,30.10,WSW,245,0.0,0.0,81,0.00,,,0.00,76,Wunderground v.1.15,2013-02-08 20:16:00,
2013-02-08 15:21:00,32.8,27.3,30.11,WSW,255,0.0,0.0,80,0.00,,,0.00,67,Wunderground v.1.15,2013-02-08 20:21:00,
2013-02-08 15:26:00,32.8,27.6,30.11,West,279,0.0,0.0,81,0.00,,,0.00,95,Wunderground v.1.15,2013-02-08 20:26:00,
2013-02-08 15:31:00,32.9,27.7,30.11,West,277,0.0,0.0,81,0.00,,,0.00,88,Wunderground v.1.15,2013-02-08 20:31:00,
2013-02-08 15:36:00,32.9,27.4,30.12,WNW,285,0.0,0.0,80,0.00,,,0.00,70,Wunderground v.1.15,2013-02-08 20:36:00,
2013-02-08 15:41:00,33.0,27.5,30.12,West,273,0.0,0.0,80,0.00,,,0.00,63,Wunderground v.1.15,2013-02-08 20:41:00,
2013-02-08 15:46:00,32.9,27.4,30.12,WSW,250,0.0,0.0,80,0.00,,,0.00,46,Wunderground v.1.15,2013-02-08 20:46:00,
2013-02-08 15:51:00,32.9,27.4,30.12,West,265,0.0,0.0,80,0.00,,,0.00,79,Wunderground v.1.15,2013-02-08 20:51:00,
2013-02-08 15:56:00,32.9,27.4,30.12,West,273,0.0,0.0,80,0.00,,,0.00,77,Wunderground v.1.15,2013-02-08 20:56:00,
2013-02-08 16:01:00,32.9,27.4,30.13,WNW,296,0.0,0.0,80,0.00,,,0.00,60,Wunderground v.1.15,2013-02-08 21:01:00,
2013-02-08 16:06:00,32.8,27.0,30.13,West,263,0.0,0.0,79,0.00,,,0.00,49,Wunderground v.1.15,2013-02-08 21:06:00,
2013-02-08 16:11:00,32.7,27.2,30.13,WNW,294,0.0,0.0,80,0.00,,,0.00,46,Wunderground v.1.15,2013-02-08 21:11:00,
2013-02-08 16:16:00,32.8,27.3,30.13,West,263,0.0,0.0,80,0.00,,,0.00,76,Wunderground v.1.15,2013-02-08 21:16:00,
2013-02-08 16:21:00,32.9,27.4,30.14,West,273,0.0,0.0,80,0.00,,,0.00,63,Wunderground v.1.15,2013-02-08 21:21:00,
2013-02-08 16:26:00,32.8,27.3,30.14,WNW,288,0.0,0.0,80,0.00,,,0.00,58,Wunderground v.1.15,2013-02-08 21:26:00,
2013-02-08 16:31:00,32.7,26.9,30.14,WNW,285,0.0,0.0,79,0.00,,,0.00,42,Wunderground v.1.15,2013-02-08 21:31:00,
2013-02-08 16:36:00,32.6,27.1,30.14,WNW,288,0.0,0.0,80,0.00,,,0.00,39,Wunderground v.1.15,2013-02-08 21:36:00,
2013-02-08 16:41:00,32.5,27.0,30.14,West,281,0.0,0.0,80,0.00,,,0.00,47,Wunderground v.1.15,2013-02-08 21:41:00,
2013-02-08 16:46:00,32.4,27.2,30.15,West,279,0.0,0.0,81,0.00,,,0.00,42,Wunderground v.1.15,2013-02-08 21:46:00,
2013-02-08 16:52:00,32.3,27.1,30.15,West,264,0.0,0.0,81,0.00,,,0.00,40,Wunderground v.1.15,2013-02-08 21:52:00,
2013-02-08 16:57:00,32.1,26.9,30.15,WNW,286,0.0,0.0,81,0.00,,,0.00,30,Wunderground v.1.15,2013-02-08 21:57:00,
2013-02-08 17:02:00,32.0,26.5,30.16,West,259,0.0,0.0,80,0.00,,,0.00,33,Wunderground v.1.15,2013-02-08 22:02:00,
2013-02-08 17:07:00,32.0,26.8,30.16,WNW,295,0.0,0.0,81,0.00,,,0.00,21,Wunderground v.1.15,2013-02-08 22:07:00,
2013-02-08 17:12:00,32.1,26.9,30.16,WNW,296,0.0,0.0,81,0.00,,,0.00,14,Wunderground v.1.15,2013-02-08 22:12:00,
2013-02-08 17:17:00,32.0,26.8,30.16,WSW,248,0.0,0.0,81,0.00,,,0.00,12,Wunderground v.1.15,2013-02-08 22:17:00,
2013-02-08 17:22:00,31.8,26.6,30.17,WNW,286,0.0,0.0,81,0.00,,,0.00,16,Wunderground v.1.15,2013-02-08 22:22:00,
2013-02-08 17:27:00,31.5,26.0,30.17,West,267,0.0,0.0,80,0.00,,,0.00,12,Wunderground v.1.15,2013-02-08 22:27:00,
2013-02-08 17:32:00,31.5,26.0,30.18,WNW,292,0.0,0.0,80,0.00,,,0.00,9,Wunderground v.1.15,2013-02-08 22:32:00,
2013-02-08 17:37:00,31.4,25.9,30.18,WSW,255,0.0,0.0,80,0.00,,,0.00,9,Wunderground v.1.15,2013-02-08 22:37:00,
2013-02-08 17:42:00,31.3,25.5,30.18,West,281,0.0,0.0,79,0.00,,,0.00,7,Wunderground v.1.15,2013-02-08 22:42:00,
2013-02-08 17:47:00,31.3,25.5,30.19,WSW,254,0.0,0.0,79,0.00,,,0.00,0,Wunderground v.1.15,2013-02-08 22:47:00,
2013-02-08 17:52:00,31.3,25.5,30.19,West,266,0.0,0.0,79,0.00,,,0.00,0,Wunderground v.1.15,2013-02-08 22:52:00,
2013-02-08 17:57:00,31.4,25.9,30.20,WSW,246,0.0,0.0,80,0.00,,,0.00,0,Wunderground v.1.15,2013-02-08 22:57:00,
2013-02-08 18:02:00,31.4,25.9,30.20,SW,224,0.0,0.0,80,0.00,,,0.00,0,Wunderground v.1.15,2013-02-08 23:02:00,
2013-02-08 18:07:00,31.4,25.9,30.20,WNW,288,0.0,0.0,80,0.00,,,0.00,0,Wunderground v.1.15,2013-02-08 23:07:00,
2013-02-08 18:12:00,31.2,25.7,30.20,West,275,0.0,0.0,80,0.00,,,0.00,0,Wunderground v.1.15,2013-02-08 23:12:00,
2013-02-08 18:17:00,31.0,25.6,30.21,WSW,244,0.0,0.0,80,0.00,,,0.00,0,Wunderground v.1.15,2013-02-08 23:17:00,
2013-02-08 18:22:00,31.0,25.6,30.21,West,262,0.0,0.0,80,0.00,,,0.00,0,Wunderground v.1.15,2013-02-08 23:22:00,
2013-02-08 18:27:00,30.9,25.5,30.22,WNW,295,0.0,0.0,80,0.00,,,0.00,0,Wunderground v.1.15,2013-02-08 23:27:00,
2013-02-08 18:32:00,30.6,25.2,30.22,West,280,0.0,0.0,80,0.00,,,0.00,0,Wunderground v.1.15,2013-02-08 23:32:00,
2013-02-08 18:37:00,30.5,25.1,30.22,WSW,246,0.0,0.0,80,0.00,,,0.00,0,Wunderground v.1.15,2013-02-08 23:37:00,
2013-02-08 18:42:00,30.3,24.6,30.23,SW,232,0.0,0.0,79,0.00,,,0.00,0,Wunderground v.1.15,2013-02-08 23:42:00,
2013-02-08 18:47:00,30.2,24.5,30.23,West,261,0.0,0.0,79,0.00,,,0.00,0,Wunderground v.1.15,2013-02-08 23:47:00,
2013-02-08 18:52:00,30.2,24.5,30.23,WNW,296,0.0,0.0,79,0.00,,,0.00,0,Wunderground v.1.15,2013-02-08 23:52:00,
2013-02-08 18:57:00,30.1,24.4,30.24,West,263,0.0,0.0,79,0.00,,,0.00,0,Wunderground v.1.15,2013-02-08 23:57:00,
2013-02-08 19:02:00,29.9,23.9,30.24,WSW,257,0.0,0.0,78,0.00,,,0.00,0,Wunderground v.1.15,2013-02-09 00:02:00,
2013-02-08 19:07:00,29.9,24.2,30.24,WNW,300,0.0,0.0,79,0.00,,,0.00,0,Wunderground v.1.15,2013-02-09 00:07:00,
2013-02-08 19:12:00,29.9,23.9,30.24,WNW,290,0.0,0.0,78,0.00,,,0.00,0,Wunderground v.1.15,2013-02-09 00:12:00,
2013-02-08 19:17:00,29.9,23.9,30.25,WNW,302,0.0,0.0,78,0.00,,,0.00,0,Wunderground v.1.15,2013-02-09 00:17:00,
2013-02-08 19:22:00,29.8,23.8,30.25,WNW,289,0.0,0.0,78,0.00,,,0.00,0,Wunderground v.1.15,2013-02-09 00:22:00,
2013-02-08 19:27:00,29.8,24.1,30.25,West,277,0.0,0.0,79,0.00,,,0.00,0,Wunderground v.1.15,2013-02-09 00:27:00,
2013-02-08 19:32:00,29.8,24.1,30.26,WNW,300,0.0,0.0,79,0.00,,,0.00,0,Wunderground v.1.15,2013-02-09 00:32:00,
2013-02-08 19:37:00,29.8,24.1,30.26,NW,316,0.0,0.0,79,0.00,,,0.00,0,Wunderground v.1.15,2013-02-09 00:37:00,
2013-02-08 19:42:00,29.9,24.2,30.26,West,275,0.0,0.0,79,0.00,,,0.00,0,Wunderground v.1.15,2013-02-09 00:42:00,
2013-02-08 19:47:00,29.8,24.4,30.26,West,271,0.0,0.0,80,0.00,,,0.00,0,Wunderground v.1.15,2013-02-09 00:47:00,
2013-02-08 19:52:00,29.6,24.2,30.27,West,279,0.0,0.0,80,0.00,,,0.00,0,Wunderground v.1.15,2013-02-09 00:52:00,
2013-02-08 19:58:00,29.4,23.7,30.27,WNW,291,0.0,0.0,79,0.00,,,0.00,0,Wunderground v.1.15,2013-02-09 00:58:00,
2013-02-08 20:03:00,29.3,23.6,30.27,WNW,295,0.0,0.0,79,0.00,,,0.00,0,Wunderground v.1.15,2013-02-09 01:03:00,
2013-02-08 20:08:00,29.2,23.5,30.28,WNW,293,0.0,0.0,79,0.00,,,0.00,0,Wunderground v.1.15,2013-02-09 01:08:00,
2013-02-08 20:13:00,29.1,23.4,30.28,NW,305,0.0,0.0,79,0.00,,,0.00,0,Wunderground v.1.15,2013-02-09 01:13:00,
2013-02-08 20:18:00,29.0,23.3,30.28,WNW,288,0.0,0.0,79,0.00,,,0.00,0,Wunderground v.1.15,2013-02-09 01:18:00,
2013-02-08 20:23:00,29.0,23.3,30.28,West,271,0.0,0.0,79,0.00,,,0.00,0,Wunderground v.1.15,2013-02-09 01:23:00,
2013-02-08 20:28:00,28.9,23.2,30.29,NW,323,0.0,0.0,79,0.00,,,0.00,0,Wunderground v.1.15,2013-02-09 01:28:00,
2013-02-08 20:33:00,28.8,23.1,30.29,NW,320,0.0,0.0,79,0.00,,,0.00,0,Wunderground v.1.15,2013-02-09 01:33:00,
2013-02-08 20:38:00,28.8,23.1,30.29,WNW,286,0.0,0.0,79,0.00,,,0.00,0,Wunderground v.1.15,2013-02-09 01:38:00,
2013-02-08 20:43:00,28.7,23.0,30.30,WNW,302,0.0,0.0,79,0.00,,,0.00,0,Wunderground v.1.15,2013-02-09 01:43:00,
2013-02-08 20:48:00,28.8,23.1,30.30,NNW,336,0.0,0.0,79,0.00,,,0.00,0,Wunderground v.1.15,2013-02-09 01:48:00,
2013-02-08 20:53:00,28.8,23.1,30.30,WNW,298,0.0,0.0,79,0.00,,,0.00,0,Wunderground v.1.15,2013-02-09 01:53:00,
2013-02-08 20:58:00,28.8,23.1,30.30,WNW,298,0.0,0.0,79,0.00,,,0.00,0,Wunderground v.1.15,2013-02-09 01:58:00,
2013-02-08 21:03:00,28.8,23.1,30.30,West,270,0.0,0.0,79,0.00,,,0.00,0,Wunderground v.1.15,2013-02-09 02:03:00,
2013-02-08 21:08:00,28.8,23.4,30.31,West,275,0.0,0.0,80,0.00,,,0.00,0,Wunderground v.1.15,2013-02-09 02:08:00,
2013-02-08 21:13:00,28.7,23.3,30.31,West,267,0.0,0.0,80,0.00,,,0.00,0,Wunderground v.1.15,2013-02-09 02:13:00,
2013-02-08 21:18:00,28.5,22.8,30.31,West,281,0.0,0.0,79,0.00,,,0.00,0,Wunderground v.1.15,2013-02-09 02:18:00,
2013-02-08 21:23:00,28.5,22.5,30.31,WSW,251,0.0,0.0,78,0.00,,,0.00,0,Wunderground v.1.15,2013-02-09 02:23:00,
2013-02-08 21:28:00,28.5,22.5,30.31,West,277,0.0,0.0,78,0.00,,,0.00,0,Wunderground v.1.15,2013-02-09 02:28:00,
2013-02-08 21:33:00,28.6,22.6,30.31,West,281,0.0,0.0,78,0.00,,,0.00,0,Wunderground v.1.15,2013-02-09 02:33:00,
2013-02-08 21:38:00,28.6,22.6,30.31,WNW,299,0.0,0.0,78,0.00,,,0.00,0,Wunderground v.1.15,2013-02-09 02:38:00,
2013-02-08 21:43:00,28.6,22.6,30.31,WNW,286,0.0,0.0,78,0.00,,,0.00,0,Wunderground v.1.15,2013-02-09 02:43:00,
2013-02-08 21:48:00,28.6,22.6,30.31,NW,317,0.0,0.0,78,0.00,,,0.00,0,Wunderground v.1.15,2013-02-09 02:48:00,
2013-02-08 21:53:00,28.6,22.6,30.32,NW,309,0.0,0.0,78,0.00,,,0.00,0,Wunderground v.1.15,2013-02-09 02:53:00,
2013-02-08 21:58:00,28.6,22.6,30.32,WNW,286,0.0,0.0,78,0.00,,,0.00,0,Wunderground v.1.15,2013-02-09 02:58:00,
2013-02-08 22:03:00,28.5,22.5,30.32,WSW,254,0.0,0.0,78,0.00,,,0.00,0,Wunderground v.1.15,2013-02-09 03:03:00,
2013-02-08 22:08:00,28.5,22.5,30.32,West,274,0.0,0.0,78,0.00,,,0.00,0,Wunderground v.1.15,2013-02-09 03:08:00,
2013-02-08 22:13:00,28.5,22.5,30.32,West,269,0.0,0.0,78,0.00,,,0.00,0,Wunderground v.1.15,2013-02-09 03:13:00,
2013-02-08 22:18:00,28.6,22.6,30.33,WNW,286,0.0,0.0,78,0.00,,,0.00,0,Wunderground v.1.15,2013-02-09 03:18:00,
2013-02-08 22:23:00,28.6,22.6,30.33,WNW,287,0.0,0.0,78,0.00,,,0.00,0,Wunderground v.1.15,2013-02-09 03:23:00,
2013-02-08 22:28:00,28.5,22.5,30.33,WNW,287,0.0,0.0,78,0.00,,,0.00,0,Wunderground v.1.15,2013-02-09 03:28:00,
2013-02-08 22:33:00,28.5,22.2,30.33,WNW,296,0.0,0.0,77,0.00,,,0.00,0,Wunderground v.1.15,2013-02-09 03:33:00,
2013-02-08 22:38:00,28.4,22.1,30.32,West,277,0.0,0.0,77,0.00,,,0.00,0,Wunderground v.1.15,2013-02-09 03:38:00,
2013-02-08 22:43:00,28.3,21.7,30.32,West,261,0.0,0.0,76,0.00,,,0.00,0,Wunderground v.1.15,2013-02-09 03:43:00,
2013-02-08 22:48:00,28.4,21.8,30.32,West,265,0.0,0.0,76,0.00,,,0.00,0,Wunderground v.1.15,2013-02-09 03:48:00,
2013-02-08 22:53:00,28.4,21.5,30.32,WNW,293,0.0,0.0,75,0.00,,,0.00,0,Wunderground v.1.15,2013-02-09 03:53:00,
2013-02-08 22:58:00,28.4,21.5,30.32,West,271,0.0,0.0,75,0.00,,,0.00,0,Wunderground v.1.15,2013-02-09 03:58:00,
2013-02-08 23:03:00,28.3,21.4,30.32,West,269,0.0,0.0,75,0.00,,,0.00,0,Wunderground v.1.15,2013-02-09 04:03:00,
2013-02-08 23:08:00,28.3,21.4,30.32,WNW,294,0.0,0.0,75,0.00,,,0.00,0,Wunderground v.1.15,2013-02-09 04:08:00,
2013-02-08 23:13:00,28.3,21.1,30.33,West,273,0.0,0.0,74,0.00,,,0.00,0,Wunderground v.1.15,2013-02-09 04:13:00,
2013-02-08 23:18:00,28.3,21.1,30.33,WNW,288,0.0,0.0,74,0.00,,,0.00,0,Wunderground v.1.15,2013-02-09 04:18:00,
2013-02-08 23:23:00,28.1,20.9,30.33,West,268,0.0,0.0,74,0.00,,,0.00,0,Wunderground v.1.15,2013-02-09 04:23:00,
2013-02-08 23:28:00,28.0,20.8,30.33,West,271,0.0,0.0,74,0.00,,,0.00,0,Wunderground v.1.15,2013-02-09 04:28:00,
2013-02-08 23:33:00,27.8,20.6,30.33,WNW,285,0.0,0.0,74,0.00,,,0.00,0,Wunderground v.1.15,2013-02-09 04:33:00,
2013-02-08 23:38:00,27.6,20.4,30.33,WNW,296,0.0,0.0,74,0.00,,,0.00,0,Wunderground v.1.15,2013-02-09 04:38:00,
2013-02-08 23:43:00,27.5,20.6,30.33,WNW,295,0.0,0.0,75,0.00,,,0.00,0,Wunderground v.1.15,2013-02-09 04:43:00,
2013-02-08 23:48:00,27.5,20.6,30.33,West,276,0.0,0.0,75,0.00,,,0.00,0,Wunderground v.1.15,2013-02-09 04:48:00,
2013-02-08 23:53:00,27.3,20.4,30.33,WNW,300,0.0,0.0,75,0.00,,,0.00,0,Wunderground v.1.15,2013-02-09 04:53:00,
2013-02-08 23:58:00,27.3,20.4,30.33,NW,315,0.0,0.0,75,0.00,,,0.00,0,Wunderground v.1.15,2013-02-09 04:58:00,